Flight Track Log - Related Links

Times and Time Zones

All times are in EDT time to prevent confusion due to time zone crossing. See the ENY3183 flight status page for this flight to view local times or setup timezone preferences in your user account.

Time Position Orientation Groundspeed Altitude Reporting Facility
EDT Latitude Longitude Course Direction KTS MPH feet Rate Location/Type
Wed 06:12:00 PM 42.9557 -89.6720 236° Southwest  Level FlightAware Approximate
Wed 06:12:02 PM 43.1764 -89.4328 262° West 245 282 6,000  Level Chicago Center
Wed 06:13:00 PM 42.8924 -89.7819 236° Southwest  Level FlightAware Approximate
Wed 06:13:04 PM 43.1389 -89.4981 232° Southwest 226 260 9,000  Level Chicago Center
Wed 06:14:00 PM 42.8347 -89.8973 236° Southwest  Level FlightAware Approximate
Wed 06:14:06 PM 43.0992 -89.5647 231° Southwest 225 259 11,100  Level Chicago Center
Wed 06:15:00 PM 42.7715 -90.0069 236° Southwest  Level FlightAware Approximate
Wed 06:15:08 PM 43.0533 -89.6392 230° Southwest 246 283 13,100  Level Chicago Center
Wed 06:16:00 PM 42.7052 -90.1231 236° Southwest  Level FlightAware Approximate
Wed 06:16:10 PM 42.9958 -89.7369 231° Southwest 270 311 15,400  Level Chicago Center
Wed 06:17:13 PM 42.9444 -89.8208 230° Southwest 282 325 16,900 1,248 Climbing Chicago Center
Wed 06:18:15 PM 42.8889 -89.9131 231° Southwest 305 351 18,000 1,161 Climbing Chicago Center
Wed 06:19:17 PM 42.8289 -90.0100 230° Southwest 327 376 19,300 1,258 Climbing Chicago Center
Wed 06:20:19 PM 42.7675 -90.1128 231° Southwest 345 397 20,600 1,355 Climbing Chicago Center
Wed 06:21:21 PM 42.6900 -90.2397 230° Southwest 359 413 22,100 1,355 Climbing Chicago Center
Wed 06:22:23 PM 42.6242 -90.3475 230° Southwest 366 421 23,400 912 Climbing Chicago Center
Wed 06:23:26 PM 42.5572 -90.4575 230° Southwest 373 429 24,000 960 Climbing Chicago Center
Wed 06:24:28 PM 42.4894 -90.5664 230° Southwest 375 432 25,400 1,403 Climbing Chicago Center
Wed 06:25:30 PM 42.4258 -90.6689 230° Southwest 363 418 26,900 1,403 Climbing Chicago Center
Wed 06:26:32 PM 42.3544 -90.7525 221° Southwest 346 398 28,300 1,306 Climbing Chicago Center
Wed 06:27:34 PM 42.2686 -90.8236 212° Southwest 345 397 29,600 1,306 Climbing Chicago Center
Wed 06:28:36 PM 42.1742 -90.9050 213° Southwest 339 390 31,000 1,200 Climbing Chicago Center
Wed 06:29:39 PM 42.0961 -90.9717 212° Southwest 338 389 32,100 960 Climbing Chicago Center
Wed 06:30:41 PM 42.0244 -91.0331 212° Southwest 335 386 33,000 968 Climbing Chicago Center
Wed 06:31:43 PM 41.9311 -91.1133 213° Southwest 336 387 34,100 968 Climbing Chicago Center
Wed 06:32:45 PM 41.8533 -91.1789 212° Southwest 334 384 35,000 435 Climbing Chicago Center
Wed 06:33:47 PM 41.7792 -91.2411 212° Southwest 344 396 35,000  Level Chicago Center
Wed 06:34:49 PM 41.6744 -91.3300 212° Southwest 370 426 35,000  Level Chicago Center
Wed 06:35:51 PM 41.5925 -91.3983 212° Southwest 387 445 35,000  Level Chicago Center
Wed 06:36:54 PM 41.4892 -91.4850 212° Southwest 390 449 35,000  Level Chicago Center
Wed 06:37:56 PM 41.3964 -91.5642 213° Southwest 394 453 35,000 435 Level Chicago Center
Wed 06:38:58 PM 41.3031 -91.6394 211° Southwest 393 452 35,900 484 Climbing Chicago Center
Wed 06:40:00 PM 41.2094 -91.7189 213° Southwest 382 440 36,000 48 Climbing Chicago Center
Wed 06:41:02 PM 41.1211 -91.7931 212° Southwest 381 438 36,000  Level Chicago Center
Wed 06:42:05 PM 41.0117 -91.8803 211° Southwest 383 441 36,000  Level Chicago Center
Wed 06:43:07 PM 40.9219 -91.9547 212° Southwest 385 443 36,000  Level Chicago Center
Wed 06:44:09 PM 40.8306 -92.0292 212° Southwest 386 444 36,000  Level Chicago Center
Wed 06:45:11 PM 40.7408 -92.1042 212° Southwest 386 444 36,000  Level Chicago Center
Wed 06:46:13 PM 40.6292 -92.1931 211° Southwest 388 447 36,000  Level Chicago Center
Wed 06:47:15 PM 40.5386 -92.2678 212° Southwest 387 445 36,000  Level Chicago Center
Wed 06:48:18 PM 40.4461 -92.3422 211° Southwest 390 449 36,000  Level Chicago Center
Wed 06:49:22 PM 40.3561 -92.4136 211° Southwest 389 448 36,000  Level Kansas City Center
Wed 06:50:24 PM 40.2586 -92.4906 211° Southwest 388 447 36,000  Level Kansas City Center
Wed 06:51:26 PM 40.1694 -92.5614 211° Southwest 383 441 36,000  Level Kansas City Center
Wed 06:52:28 PM 40.0736 -92.6686 221° Southwest 383 441 36,000  Level Kansas City Center
Wed 06:53:30 PM 40.0072 -92.7758 231° Southwest 384 442 36,000  Level Kansas City Center
Wed 06:54:33 PM 39.9375 -92.8761 228° Southwest 383 441 36,000  Level Kansas City Center
Wed 06:55:35 PM 39.8678 -92.9742 227° Southwest 376 433 36,000  Level Kansas City Center
Wed 06:56:37 PM 39.8000 -93.0714 228° Southwest 371 427 36,000  Level Kansas City Center
Wed 06:57:39 PM 39.7189 -93.1861 227° Southwest 367 422 36,000  Level Kansas City Center
Wed 06:58:41 PM 39.6511 -93.2833 228° Southwest 366 421 36,000  Level Kansas City Center
Wed 06:59:43 PM 39.5825 -93.3825 228° Southwest 368 423 36,000  Level Kansas City Center
Wed 07:00:45 PM 39.5106 -93.4814 227° Southwest 375 432 36,000  Level Kansas City Center
Wed 07:01:47 PM 39.4397 -93.5819 228° Southwest 377 434 36,000  Level Kansas City Center
Wed 07:02:50 PM 39.3550 -93.7022 228° Southwest 378 435 36,000  Level Kansas City Center
Wed 07:03:52 PM 39.2933 -93.7878 227° Southwest 378 435 36,000  Level Kansas City Center
Wed 07:04:54 PM 39.2083 -93.9083 228° Southwest 378 435 36,000  Level Kansas City Center
Wed 07:05:56 PM 39.1361 -94.0067 227° Southwest 378 435 36,000  Level Kansas City Center
Wed 07:06:58 PM 39.0661 -94.1053 228° Southwest 377 434 36,000  Level Kansas City Center
Wed 07:08:00 PM 38.9944 -94.2033 227° Southwest 377 434 36,000  Level Kansas City Center
Wed 07:09:02 PM 38.9092 -94.2811 215° Southwest 382 440 36,000  Level Kansas City Center
Wed 07:10:04 PM 38.8111 -94.3358 204° Southwest 382 440 36,000  Level Kansas City Center
Wed 07:11:07 PM 38.6922 -94.4042 204° Southwest 385 443 36,000  Level Kansas City Center
Wed 07:12:09 PM 38.5936 -94.4619 205° Southwest 385 443 36,000  Level Kansas City Center
Wed 07:13:11 PM 38.4936 -94.5192 204° Southwest 389 448 36,000  Level Kansas City Center
Wed 07:14:13 PM 38.3931 -94.5764 204° Southwest 390 449 36,000  Level Kansas City Center
Wed 07:15:15 PM 38.2922 -94.6350 205° Southwest 396 456 36,000  Level Kansas City Center
Wed 07:16:17 PM 38.1933 -94.6892 203° Southwest 394 453 36,000  Level Kansas City Center
Wed 07:17:19 PM 38.0739 -94.7567 204° Southwest 391 450 36,000  Level Kansas City Center
Wed 07:18:21 PM 37.9722 -94.8172 205° Southwest 396 456 36,000  Level Kansas City Center
Wed 07:19:24 PM 37.8697 -94.8739 204° Southwest 400 460 36,000  Level Kansas City Center
Wed 07:20:26 PM 37.7669 -94.9328 204° Southwest 401 461 36,000  Level Kansas City Center
Wed 07:21:28 PM 37.6553 -94.9925 203° Southwest 405 466 36,000  Level Kansas City Center
Wed 07:22:30 PM 37.5519 -95.0514 204° Southwest 405 466 36,000  Level Kansas City Center
Wed 07:23:32 PM 37.4408 -95.0886 195° South 409 471 36,000  Level Kansas City Center
Wed 07:24:34 PM 37.3269 -95.1081 188° South 411 473 36,000  Level Kansas City Center
Wed 07:25:36 PM 37.1900 -95.1383 190° South 412 474 36,000  Level Kansas City Center
Wed 07:26:38 PM 37.0756 -95.1636 190° South 413 475 36,000  Level Kansas City Center
Wed 07:27:40 PM 36.9622 -95.1881 190° South 414 476 36,000  Level Kansas City Center
Wed 07:28:43 PM 36.8467 -95.2136 190° South 415 478 36,000  Level Kansas City Center
Wed 07:29:45 PM 36.7322 -95.2386 190° South 415 478 36,000  Level Kansas City Center
Wed 07:30:47 PM 36.6167 -95.2639 190° South 415 478 36,000  Level Kansas City Center
Wed 07:31:49 PM 36.4994 -95.2889 190° South 415 478 36,000  Level Kansas City Center
Wed 07:32:51 PM 36.3614 -95.3192 190° South 416 479 36,000  Level Kansas City Center
Wed 07:33:53 PM 36.2419 -95.3425 189° South 424 488 36,000  Level Kansas City Center
Wed 07:34:55 PM 36.1294 -95.3681 190° South 416 479 36,000  Level Kansas City Center
Wed 07:35:57 PM 36.0128 -95.3928 190° South 408 470 36,000  Level Kansas City Center
Wed 07:37:00 PM 35.9069 -95.4172 191° South 392 451 36,000  Level Kansas City Center
Wed 07:38:02 PM 35.7986 -95.4406 190° South 393 452 36,000  Level Kansas City Center
Wed 07:39:04 PM 35.6897 -95.4647 190° South 393 452 36,000 -673 Level Kansas City Center
Wed 07:39:49 PM 35.6008 -95.4833 190° South 400 460 34,800 -1,794 Descending Fort Worth Center
Wed 07:40:51 PM 35.4897 -95.5078 190° South 403 464 32,800 -1,839 Descending Fort Worth Center
Wed 07:41:53 PM 35.3781 -95.5217 186° South 409 471 31,000 -871 Descending Fort Worth Center
Wed 07:42:55 PM 35.2722 -95.4939 168° South 394 453 31,000  Level Fort Worth Center
Wed 07:43:57 PM 35.1381 -95.4514 165° South 409 471 31,000  Level Fort Worth Center
Wed 07:45:00 PM 35.0250 -95.4172 166° South 415 478 31,000 -288 Level Fort Worth Center
Wed 07:46:02 PM 34.9103 -95.3811 166° South 421 484 30,400 -823 Descending Fort Worth Center
Wed 07:47:04 PM 34.7958 -95.3433 165° South 422 486 29,300 -1,065 Descending Fort Worth Center
Wed 07:48:06 PM 34.6808 -95.3386 178° South 424 488 28,200 -1,065 Descending Fort Worth Center
Wed 07:49:08 PM 34.5783 -95.4147 211° Southwest 416 479 27,100 -1,065 Descending Fort Worth Center
Wed 07:50:10 PM 34.4825 -95.4908 213° Southwest 415 478 26,000 -1,104 Descending Fort Worth Center
Wed 07:51:13 PM 34.3697 -95.5794 213° Southwest 432 497 24,800 -960 Descending Fort Worth Center
Wed 07:52:15 PM 34.2711 -95.6583 213° Southwest 428 493 24,000 -387 Descending Fort Worth Center
Wed 07:53:17 PM 34.1506 -95.7528 213° Southwest 429 494 24,000 -581 Level Fort Worth Center
Wed 07:54:19 PM 34.0486 -95.8339 213° Southwest 430 495 22,800 -1,887 Descending Fort Worth Center
Wed 07:55:21 PM 33.9525 -95.9086 213° Southwest 417 480 20,100 -2,710 Descending Fort Worth Center
Wed 07:56:23 PM 33.8622 -95.9789 213° Southwest 393 452 17,200 -2,928 Descending Fort Worth Center
Wed 07:57:26 PM 33.7692 -96.0514 213° Southwest 374 430 14,000 -2,400 Descending Fort Worth Center
Wed 07:58:28 PM 33.6819 -96.1228 214° Southwest 349 402 12,200 -1,355 Descending Fort Worth Center
Wed 07:59:30 PM 33.6039 -96.1814 212° Southwest 335 386 11,200 -581 Descending Fort Worth Center
Wed 08:00:32 PM 33.5169 -96.2519 214° Southwest 347 399 11,000 -97 Descending Fort Worth Center
Wed 08:01:34 PM 33.4525 -96.3350 227° Southwest 336 387 11,000 -48 Level Fort Worth Center
Wed 08:02:36 PM 33.3881 -96.4122 225° Southwest 307 353 10,900 -677 Descending Fort Worth Center
Wed 08:03:38 PM 33.3306 -96.4806 225° Southwest 295 339 9,600 -1,344 Descending Fort Worth Center
Wed 08:04:41 PM 33.2808 -96.5611 234° Southwest 287 330 8,100 -1,440 Descending Fort Worth Center
Wed 08:05:43 PM 33.2553 -96.6514 251° West 287 330 6,600 -1,452 Descending Fort Worth Center
Wed 08:06:45 PM 33.2167 -96.7369 242° Southwest 280 322 5,100 -774 Descending Fort Worth Center
Wed 08:07:47 PM 33.1725 -96.8083 234° Southwest 272 313 5,000 -97 Descending Fort Worth Center
Wed 08:08:49 PM 33.1272 -96.8861 235° Southwest 270 311 4,900 -484 Descending Fort Worth Center
Wed 08:09:51 PM 33.0844 -96.9564 234° Southwest 263 303 4,000 -912 Descending Fort Worth Center
Wed 08:10:54 PM 33.0333 -97.0247 228° Southwest 258 297 3,000 -1,008 Descending Fort Worth Center
Wed 08:11:56 PM 32.9825 -97.0269 182° South 178 205 1,900 -968 Descending Fort Worth Center
Wed 08:12:58 PM 32.9397 -97.0258 179° South 144 166 1,000 -629 Descending Fort Worth Center
Wed 08:14:00 PM 32.9069 -97.0261 180° South 138 159 600 -387 Descending Fort Worth Center

Login

Don't have an account? Register now (free) for customized features, flight alerts, and more!